METAR AND TAF INFORMATION
METAR FOR UWGG
ADDS - METARS form results

(0218 UTC 06 March 2021)
Data provider http://aviationweather.gov/metar/data/
 
METAR text: UWGG 060200Z 27003MPS CAVOK M11/M12 Q1012 R36R/820040 NOSIG
Conditions at: UWGG (NIZHNY NOVGOROD , RU) observed 0200 UTC 06 March 2021
Temperature: -11.0°C (12°F)
Dewpoint: -12.0°C (10°F) [RH = 92%]
Pressure (altimeter): 29.88 inches Hg (1012.0 mb)
Winds: from the W (270 degrees) at 7 MPH (6 knots; 3.1 m/s)
Visibility: 6 or more miles (10+ km)
Ceiling: ceiling and visibility are OK
Clouds: unknown
Weather: no significant weather observed at this time

METAR text: UWGG 060130Z 26001MPS CAVOK M13/M14 Q1012 R36R/820040 NOSIG
Conditions at: UWGG (NIZHNY NOVGOROD , RU) observed 0130 UTC 06 March 2021
Temperature: -13.0°C ( 9°F)
Dewpoint: -14.0°C ( 7°F) [RH = 92%]
Pressure (altimeter): 29.88 inches Hg (1012.0 mb)
Winds: from the W (260 degrees) at 2 MPH (2 knots; 1.0 m/s)
Visibility: 6 or more miles (10+ km)
Ceiling: ceiling and visibility are OK
Clouds: unknown
Weather: no significant weather observed at this time

Forecast for: UWGG (NIZHNY NOVGOROD , RU)
Text: TAF UWGG 052251Z 0600/0624 27003MPS 9999 BKN016 TXM08/0612Z TNM15/0603Z
Forecast period: 0000 UTC 06 March 2021 to 0000 UTC 07 March 2021
Forecast type: FROM: standard forecast or significant change
Winds: from the W (270 degrees) at 7 MPH (6 knots; 3.1 m/s)
Visibility: 6 or more miles (10+ km)
Ceiling: 1600 feet AGL
Clouds: broken clouds at 1600 feet AGL
Weather: no significant weather forecast for this period

 AIRPORT MAP

 RUNWAY INFORMATION

 AIRPORT FREQUENCIES
Type APP Name NIZHNY APP Frequency 124.7 MHZ
Type ATIS Name NIZHNY ATI Frequency 127.8 MHZ
Type GCA Name GCA Frequency 120.4 MHZ
Type GND Name GND Frequency 121.8 MHZ
Type RDR Name ASR Frequency 120.8 MHZ
Type TWR Name TWR Frequency 120.4 MHZ

 AIRPORT NEAR NAVIGATION AIDS
Type NDB Name Nizhny Novgorod Frequency 327 KHZ
Type NDB Name Nizhny Novgorod Frequency 245 KHZ
Type NDB Name Nizhny Novgorod Frequency 245 KHZ
Type NDB Name Nizhny Novgorod Frequency 327 KHZ



2018 Air Astana Virtual Airline